sensor_id;sensor_type;location;lat;lon;timestamp;pressure;altitude;pressure_sealevel;temperature;humidity
69306;BME280;56427;51.580;4.656;2023-04-01T00:01:10;99165.31;;;8.94;100.00
69306;BME280;56427;51.580;4.656;2023-04-01T00:03:37;99160.44;;;8.91;100.00
69306;BME280;56427;51.580;4.656;2023-04-01T00:06:02;99175.19;;;8.90;100.00
69306;BME280;56427;51.580;4.656;2023-04-01T00:08:28;99172.56;;;8.82;100.00
69306;BME280;56427;51.580;4.656;2023-04-01T00:10:54;99175.78;;;8.76;100.00
69306;BME280;56427;51.580;4.656;2023-04-01T00:13:19;99187.06;;;8.75;100.00
69306;BME280;56427;51.580;4.656;2023-04-01T00:15:45;99182.53;;;8.69;100.00
69306;BME280;56427;51.580;4.656;2023-04-01T00:18:12;99186.25;;;8.66;100.00
69306;BME280;56427;51.580;4.656;2023-04-01T00:20:38;99181.19;;;8.56;100.00
69306;BME280;56427;51.580;4.656;2023-04-01T00:23:04;99186.84;;;8.60;100.00
69306;BME280;56427;51.580;4.656;2023-04-01T00:25:30;99195.25;;;8.54;100.00
69306;BME280;56427;51.580;4.656;2023-04-01T00:27:56;99195.09;;;8.55;100.00
69306;BME280;56427;51.580;4.656;2023-04-01T00:30:21;99193.47;;;8.54;100.00
69306;BME280;56427;51.580;4.656;2023-04-01T00:32:46;99198.63;;;8.54;100.00
69306;BME280;56427;51.580;4.656;2023-04-01T00:35:12;99205.91;;;8.51;100.00
69306;BME280;56427;51.580;4.656;2023-04-01T00:37:38;99190.84;;;8.46;100.00
69306;BME280;56427;51.580;4.656;2023-04-01T00:40:06;99196.81;;;8.46;100.00
69306;BME280;56427;51.580;4.656;2023-04-01T00:42:32;99200.53;;;8.44;100.00
69306;BME280;56427;51.580;4.656;2023-04-01T00:44:58;99198.91;;;8.43;100.00
69306;BME280;56427;51.580;4.656;2023-04-01T00:47:24;99205.97;;;8.41;100.00
69306;BME280;56427;51.580;4.656;2023-04-01T00:49:53;99212.91;;;8.40;100.00
69306;BME280;56427;51.580;4.656;2023-04-01T00:52:22;99213.59;;;8.42;100.00
69306;BME280;56427;51.580;4.656;2023-04-01T00:54:50;99217.94;;;8.42;100.00
69306;BME280;56427;51.580;4.656;2023-04-01T00:57:43;99220.09;;;8.46;100.00
69306;BME280;56427;51.580;4.656;2023-04-01T01:00:11;99218.91;;;8.41;100.00
69306;BME280;56427;51.580;4.656;2023-04-01T01:02:41;99225.19;;;8.38;100.00
69306;BME280;56427;51.580;4.656;2023-04-01T01:05:08;99219.34;;;8.36;100.00
69306;BME280;56427;51.580;4.656;2023-04-01T01:12:57;99224.03;;;8.33;100.00
69306;BME280;56427;51.580;4.656;2023-04-01T01:23:51;99233.19;;;8.27;100.00
69306;BME280;56427;51.580;4.656;2023-04-01T01:35:20;99248.69;;;8.27;100.00
69306;BME280;56427;51.580;4.656;2023-04-01T01:37:51;99239.63;;;8.23;100.00
69306;BME280;56427;51.580;4.656;2023-04-01T01:40:19;99244.50;;;8.26;100.00
69306;BME280;56427;51.580;4.656;2023-04-01T01:42:49;99247.38;;;8.23;100.00
69306;BME280;56427;51.580;4.656;2023-04-01T01:45:19;99235.28;;;8.23;100.00
69306;BME280;56427;51.580;4.656;2023-04-01T01:47:46;99250.63;;;8.25;100.00
69306;BME280;56427;51.580;4.656;2023-04-01T01:50:14;99254.34;;;8.22;100.00
69306;BME280;56427;51.580;4.656;2023-04-01T01:52:40;99254.34;;;8.22;100.00
69306;BME280;56427;51.580;4.656;2023-04-01T01:55:27;99249.31;;;8.21;100.00
69306;BME280;56427;51.580;4.656;2023-04-01T01:57:56;99256.38;;;8.19;100.00
69306;BME280;56427;51.580;4.656;2023-04-01T02:00:23;99260.59;;;8.20;100.00
69306;BME280;56427;51.580;4.656;2023-04-01T02:02:50;99263.63;;;8.15;100.00
69306;BME280;56427;51.580;4.656;2023-04-01T02:05:21;99267.34;;;8.13;100.00
69306;BME280;56427;51.580;4.656;2023-04-01T02:08:18;99272.66;;;8.11;100.00
69306;BME280;56427;51.580;4.656;2023-04-01T02:10:56;99270.88;;;8.11;100.00
69306;BME280;56427;51.580;4.656;2023-04-01T02:13:51;99267.78;;;8.08;100.00
69306;BME280;56427;51.580;4.656;2023-04-01T02:16:26;99270.38;;;8.08;100.00
69306;BME280;56427;51.580;4.656;2023-04-01T02:18:55;99279.59;;;8.10;100.00
69306;BME280;56427;51.580;4.656;2023-04-01T02:21:24;99280.56;;;8.09;100.00
69306;BME280;56427;51.580;4.656;2023-04-01T02:23:52;99282.31;;;8.09;100.00
69306;BME280;56427;51.580;4.656;2023-04-01T02:26:18;99280.72;;;8.08;100.00
69306;BME280;56427;51.580;4.656;2023-04-01T02:28:46;99279.88;;;8.07;100.00
69306;BME280;56427;51.580;4.656;2023-04-01T02:31:14;99282.94;;;8.03;100.00
69306;BME280;56427;51.580;4.656;2023-04-01T02:33:40;99291.94;;;7.99;100.00
69306;BME280;56427;51.580;4.656;2023-04-01T02:36:12;99294.00;;;7.95;100.00
69306;BME280;56427;51.580;4.656;2023-04-01T02:38:38;99305.66;;;7.99;100.00
69306;BME280;56427;51.580;4.656;2023-04-01T02:41:04;99291.28;;;7.97;100.00
69306;BME280;56427;51.580;4.656;2023-04-01T02:43:31;99285.47;;;7.95;100.00
69306;BME280;56427;51.580;4.656;2023-04-01T02:45:56;99292.38;;;7.94;100.00
69306;BME280;56427;51.580;4.656;2023-04-01T02:48:22;99302.69;;;7.94;100.00
69306;BME280;56427;51.580;4.656;2023-04-01T02:50:47;99306.13;;;7.95;100.00
69306;BME280;56427;51.580;4.656;2023-04-01T02:53:13;99306.94;;;7.95;100.00
69306;BME280;56427;51.580;4.656;2023-04-01T02:55:38;99316.59;;;7.93;100.00
69306;BME280;56427;51.580;4.656;2023-04-01T02:58:04;99313.72;;;7.96;100.00
69306;BME280;56427;51.580;4.656;2023-04-01T03:00:29;99313.03;;;7.94;100.00
69306;BME280;56427;51.580;4.656;2023-04-01T03:02:55;99317.13;;;7.97;100.00
69306;BME280;56427;51.580;4.656;2023-04-01T03:05:22;99319.69;;;7.97;100.00
69306;BME280;56427;51.580;4.656;2023-04-01T03:07:47;99325.00;;;7.95;100.00
69306;BME280;56427;51.580;4.656;2023-04-01T03:10:13;99325.94;;;7.94;100.00
69306;BME280;56427;51.580;4.656;2023-04-01T03:12:39;99332.75;;;7.95;100.00
69306;BME280;56427;51.580;4.656;2023-04-01T03:15:05;99329.81;;;7.90;100.00
69306;BME280;56427;51.580;4.656;2023-04-01T03:17:30;99336.44;;;7.92;100.00
69306;BME280;56427;51.580;4.656;2023-04-01T03:19:56;99342.28;;;7.95;100.00
69306;BME280;56427;51.580;4.656;2023-04-01T03:22:21;99342.56;;;7.91;100.00
69306;BME280;56427;51.580;4.656;2023-04-01T03:24:48;99343.66;;;7.89;100.00
69306;BME280;56427;51.580;4.656;2023-04-01T03:27:13;99341.38;;;7.86;100.00
69306;BME280;56427;51.580;4.656;2023-04-01T03:29:38;99351.28;;;7.90;100.00
69306;BME280;56427;51.580;4.656;2023-04-01T03:32:04;99352.41;;;7.88;100.00
69306;BME280;56427;51.580;4.656;2023-04-01T03:34:30;99359.16;;;7.89;100.00
69306;BME280;56427;51.580;4.656;2023-04-01T03:36:56;99361.09;;;7.87;100.00
69306;BME280;56427;51.580;4.656;2023-04-01T03:39:21;99358.81;;;7.84;100.00
69306;BME280;56427;51.580;4.656;2023-04-01T03:41:47;99362.88;;;7.86;100.00
69306;BME280;56427;51.580;4.656;2023-04-01T03:44:13;99359.59;;;7.84;100.00
69306;BME280;56427;51.580;4.656;2023-04-01T03:46:39;99361.53;;;7.82;100.00
69306;BME280;56427;51.580;4.656;2023-04-01T03:49:11;99365.47;;;7.86;100.00
69306;BME280;56427;51.580;4.656;2023-04-01T03:51:45;99369.28;;;7.82;100.00
69306;BME280;56427;51.580;4.656;2023-04-01T03:54:11;99366.69;;;7.82;100.00
69306;BME280;56427;51.580;4.656;2023-04-01T03:56:37;99372.97;;;7.80;100.00
69306;BME280;56427;51.580;4.656;2023-04-01T03:59:04;99373.94;;;7.79;100.00
69306;BME280;56427;51.580;4.656;2023-04-01T04:01:30;99379.38;;;7.76;100.00
69306;BME280;56427;51.580;4.656;2023-04-01T04:03:56;99375.84;;;7.77;100.00
69306;BME280;56427;51.580;4.656;2023-04-01T04:06:22;99383.75;;;7.75;100.00
69306;BME280;56427;51.580;4.656;2023-04-01T04:08:48;99391.19;;;7.78;100.00
69306;BME280;56427;51.580;4.656;2023-04-01T04:11:14;99386.97;;;7.77;100.00
69306;BME280;56427;51.580;4.656;2023-04-01T04:13:40;99397.16;;;7.79;100.00
69306;BME280;56427;51.580;4.656;2023-04-01T04:16:06;99406.00;;;7.76;100.00
69306;BME280;56427;51.580;4.656;2023-04-01T04:18:32;99407.78;;;7.76;100.00
69306;BME280;56427;51.580;4.656;2023-04-01T04:20:58;99410.38;;;7.76;100.00
69306;BME280;56427;51.580;4.656;2023-04-01T04:23:23;99410.38;;;7.76;100.00
69306;BME280;56427;51.580;4.656;2023-04-01T04:26:03;99407.63;;;7.77;100.00
69306;BME280;56427;51.580;4.656;2023-04-01T04:28:29;99422.06;;;7.80;100.00
69306;BME280;56427;51.580;4.656;2023-04-01T04:30:55;99419.47;;;7.80;100.00
69306;BME280;56427;51.580;4.656;2023-04-01T04:33:22;99417.81;;;7.79;100.00
69306;BME280;56427;51.580;4.656;2023-04-01T04:35:48;99422.84;;;7.80;100.00
69306;BME280;56427;51.580;4.656;2023-04-01T04:38:14;99432.06;;;7.83;100.00
69306;BME280;56427;51.580;4.656;2023-04-01T04:40:40;99434.13;;;7.79;100.00
69306;BME280;56427;51.580;4.656;2023-04-01T04:43:07;99432.75;;;7.85;100.00
69306;BME280;56427;51.580;4.656;2023-04-01T04:45:32;99432.06;;;7.83;100.00
69306;BME280;56427;51.580;4.656;2023-04-01T04:47:58;99437.91;;;7.85;100.00
69306;BME280;56427;51.580;4.656;2023-04-01T04:50:24;99441.31;;;7.85;100.00
69306;BME280;56427;51.580;4.656;2023-04-01T04:52:50;99445.66;;;7.85;100.00
69306;BME280;56427;51.580;4.656;2023-04-01T04:55:16;99447.72;;;7.81;100.00
69306;BME280;56427;51.580;4.656;2023-04-01T04:57:41;99455.72;;;7.88;100.00
69306;BME280;56427;51.580;4.656;2023-04-01T05:00:08;99453.28;;;7.86;100.00
69306;BME280;56427;51.580;4.656;2023-04-01T05:02:35;99462.78;;;7.86;100.00
69306;BME280;56427;51.580;4.656;2023-04-01T05:05:01;99466.84;;;7.88;100.00
69306;BME280;56427;51.580;4.656;2023-04-01T05:07:26;99464.78;;;7.92;100.00
69306;BME280;56427;51.580;4.656;2023-04-01T05:09:51;99462.22;;;7.92;100.00
69306;BME280;56427;51.580;4.656;2023-04-01T05:12:17;99470.91;;;7.91;100.00
69306;BME280;56427;51.580;4.656;2023-04-01T05:14:42;99474.03;;;7.95;100.00
69306;BME280;56427;51.580;4.656;2023-04-01T05:17:12;99479.22;;;7.95;100.00
69306;BME280;56427;51.580;4.656;2023-04-01T05:19:38;99485.19;;;7.95;100.00
69306;BME280;56427;51.580;4.656;2023-04-01T05:22:04;99492.66;;;7.98;100.00
69306;BME280;56427;51.580;4.656;2023-04-01T05:24:30;99496.03;;;7.99;100.00
69306;BME280;56427;51.580;4.656;2023-04-01T05:26:56;99493.16;;;8.02;100.00
69306;BME280;56427;51.580;4.656;2023-04-01T05:29:23;99499.00;;;8.04;100.00
69306;BME280;56427;51.580;4.656;2023-04-01T05:31:48;99501.72;;;8.02;100.00
69306;BME280;56427;51.580;4.656;2023-04-01T05:34:13;99499.81;;;8.04;100.00
69306;BME280;56427;51.580;4.656;2023-04-01T05:36:39;99518.84;;;8.03;100.00
69306;BME280;56427;51.580;4.656;2023-04-01T05:39:06;99516.28;;;8.03;100.00
69306;BME280;56427;51.580;4.656;2023-04-01T05:41:35;99521.31;;;8.05;100.00
69306;BME280;56427;51.580;4.656;2023-04-01T05:44:00;99523.09;;;8.04;100.00
69306;BME280;56427;51.580;4.656;2023-04-01T05:46:26;99530.13;;;8.02;100.00
69306;BME280;56427;51.580;4.656;2023-04-01T05:48:51;99536.38;;;8.09;100.00
69306;BME280;56427;51.580;4.656;2023-04-01T05:51:16;99540.72;;;8.09;100.00
69306;BME280;56427;51.580;4.656;2023-04-01T05:53:42;99549.31;;;8.09;100.00
69306;BME280;56427;51.580;4.656;2023-04-01T05:56:08;99551.59;;;8.13;100.00
69306;BME280;56427;51.580;4.656;2023-04-01T05:58:35;99554.31;;;8.11;100.00
69306;BME280;56427;51.580;4.656;2023-04-01T06:01:03;99553.22;;;8.14;100.00
69306;BME280;56427;51.580;4.656;2023-04-01T06:03:28;99558.25;;;8.15;100.00
69306;BME280;56427;51.580;4.656;2023-04-01T06:09:32;99579.44;;;8.19;100.00
69306;BME280;56427;51.580;4.656;2023-04-01T06:14:59;99584.75;;;8.17;100.00
69306;BME280;56427;51.580;4.656;2023-04-01T06:20:43;99596.31;;;8.23;100.00
69306;BME280;56427;51.580;4.656;2023-04-01T06:26:53;99601.59;;;8.21;100.00
69306;BME280;56427;51.580;4.656;2023-04-01T06:36:49;99616.44;;;8.19;100.00
69306;BME280;56427;51.580;4.656;2023-04-01T06:39:51;99614.16;;;8.16;100.00
69306;BME280;56427;51.580;4.656;2023-04-01T06:45:31;99639.72;;;8.19;100.00
69306;BME280;56427;51.580;4.656;2023-04-01T06:53:14;99646.50;;;8.20;100.00
69306;BME280;56427;51.580;4.656;2023-04-01T06:55:47;99653.03;;;8.24;100.00
69306;BME280;56427;51.580;4.656;2023-04-01T06:58:54;99652.88;;;8.26;100.00
69306;BME280;56427;51.580;4.656;2023-04-01T07:01:34;99652.03;;;8.25;100.00
69306;BME280;56427;51.580;4.656;2023-04-01T07:04:06;99653.81;;;8.25;100.00
69306;BME280;56427;51.580;4.656;2023-04-01T07:06:46;99660.50;;;8.27;100.00
69306;BME280;56427;51.580;4.656;2023-04-01T07:09:18;99654.63;;;8.25;100.00
69306;BME280;56427;51.580;4.656;2023-04-01T07:11:45;99669.59;;;8.32;100.00
69306;BME280;56427;51.580;4.656;2023-04-01T07:16:47;99664.03;;;8.26;100.00
69306;BME280;56427;51.580;4.656;2023-04-01T07:22:03;99675.31;;;8.25;100.00
69306;BME280;56427;51.580;4.656;2023-04-01T07:24:41;99676.41;;;8.33;100.00
69306;BME280;56427;51.580;4.656;2023-04-01T07:27:11;99686.69;;;8.42;100.00
69306;BME280;56427;51.580;4.656;2023-04-01T07:29:37;99689.03;;;8.36;100.00
69306;BME280;56427;51.580;4.656;2023-04-01T07:35:03;99697.34;;;8.29;100.00
69306;BME280;56427;51.580;4.656;2023-04-01T07:40:23;99709.88;;;8.34;100.00
69306;BME280;56427;51.580;4.656;2023-04-01T07:50:37;99714.06;;;8.35;100.00
69306;BME280;56427;51.580;4.656;2023-04-01T07:55:59;99725.75;;;8.39;100.00
69306;BME280;56427;51.580;4.656;2023-04-01T08:04:23;99739.91;;;8.35;100.00
69306;BME280;56427;51.580;4.656;2023-04-01T08:07:14;99740.63;;;8.27;100.00
69306;BME280;56427;51.580;4.656;2023-04-01T08:15:32;99752.97;;;8.34;100.00
69306;BME280;56427;51.580;4.656;2023-04-01T08:23:18;99763.19;;;8.45;100.00
69306;BME280;56427;51.580;4.656;2023-04-01T08:26:02;99768.22;;;8.37;100.00
69306;BME280;56427;51.580;4.656;2023-04-01T08:28:41;99764.16;;;8.34;100.00
69306;BME280;56427;51.580;4.656;2023-04-01T08:31:17;99771.78;;;8.36;100.00
69306;BME280;56427;51.580;4.656;2023-04-01T08:33:47;99776.34;;;8.42;100.00
69306;BME280;56427;51.580;4.656;2023-04-01T08:36:19;99784.25;;;8.50;100.00
69306;BME280;56427;51.580;4.656;2023-04-01T08:38:51;99783.06;;;8.44;100.00
69306;BME280;56427;51.580;4.656;2023-04-01T08:44:11;99795.84;;;8.36;100.00
69306;BME280;56427;51.580;4.656;2023-04-01T08:52:37;99802.53;;;8.29;100.00
69306;BME280;56427;51.580;4.656;2023-04-01T08:55:31;99802.94;;;8.34;100.00
69306;BME280;56427;51.580;4.656;2023-04-01T09:00:54;99818.84;;;8.29;100.00
69306;BME280;56427;51.580;4.656;2023-04-01T09:03:44;99822.66;;;8.25;100.00
69306;BME280;56427;51.580;4.656;2023-04-01T09:07:04;99824.56;;;8.33;100.00
69306;BME280;56427;51.580;4.656;2023-04-01T09:09:29;99825.34;;;8.34;100.00
69306;BME280;56427;51.580;4.656;2023-04-01T09:23:12;99832.88;;;8.46;100.00
69306;BME280;56427;51.580;4.656;2023-04-01T09:34:04;99850.56;;;8.51;100.00
69306;BME280;56427;51.580;4.656;2023-04-01T09:36:43;99852.88;;;8.54;100.00
69306;BME280;56427;51.580;4.656;2023-04-01T09:39:36;99846.19;;;8.52;100.00
69306;BME280;56427;51.580;4.656;2023-04-01T09:52:51;99863.75;;;8.58;100.00
69306;BME280;56427;51.580;4.656;2023-04-01T10:12:22;99882.09;;;8.84;100.00
69306;BME280;56427;51.580;4.656;2023-04-01T10:18:06;99881.28;;;8.74;100.00
69306;BME280;56427;51.580;4.656;2023-04-01T10:29:39;99890.38;;;8.78;100.00
69306;BME280;56427;51.580;4.656;2023-04-01T10:35:20;99899.78;;;8.79;100.00
69306;BME280;56427;51.580;4.656;2023-04-01T10:44:05;99906.63;;;8.80;100.00
69306;BME280;56427;51.580;4.656;2023-04-01T10:52:01;99909.47;;;9.24;100.00
69306;BME280;56427;51.580;4.656;2023-04-01T11:22:32;99940.69;;;9.23;100.00
69306;BME280;56427;51.580;4.656;2023-04-01T11:33:08;99943.41;;;9.58;100.00
69306;BME280;56427;51.580;4.656;2023-04-01T11:36:08;99950.41;;;9.48;100.00
69306;BME280;56427;51.580;4.656;2023-04-01T12:06:01;99996.44;;;9.07;100.00
69306;BME280;56427;51.580;4.656;2023-04-01T12:08:59;99993.84;;;9.17;100.00
69306;BME280;56427;51.580;4.656;2023-04-01T12:11:37;99995.75;;;9.15;100.00
69306;BME280;56427;51.580;4.656;2023-04-01T12:19:53;100002.03;;;9.02;100.00
69306;BME280;56427;51.580;4.656;2023-04-01T12:53:40;100036.00;;;9.56;100.00
69306;BME280;56427;51.580;4.656;2023-04-01T12:56:26;100041.06;;;9.48;100.00
69306;BME280;56427;51.580;4.656;2023-04-01T13:04:37;100043.84;;;9.17;100.00
69306;BME280;56427;51.580;4.656;2023-04-01T13:07:39;100049.31;;;9.05;100.00
69306;BME280;56427;51.580;4.656;2023-04-01T13:16:39;100061.56;;;9.12;100.00
69306;BME280;56427;51.580;4.656;2023-04-01T13:19:21;100067.97;;;9.28;100.00
69306;BME280;56427;51.580;4.656;2023-04-01T13:24:46;100068.13;;;8.97;100.00
69306;BME280;56427;51.580;4.656;2023-04-01T13:27:43;100076.28;;;9.02;100.00
69306;BME280;56427;51.580;4.656;2023-04-01T13:44:00;100086.78;;;9.00;100.00
69306;BME280;56427;51.580;4.656;2023-04-01T13:49:23;100085.69;;;8.93;100.00
69306;BME280;56427;51.580;4.656;2023-04-01T13:57:48;100098.19;;;8.98;100.00
69306;BME280;56427;51.580;4.656;2023-04-01T14:00:32;100102.16;;;8.92;100.00
69306;BME280;56427;51.580;4.656;2023-04-01T14:11:35;100113.47;;;9.01;100.00
69306;BME280;56427;51.580;4.656;2023-04-01T14:14:33;100121.19;;;8.81;100.00
69306;BME280;56427;51.580;4.656;2023-04-01T14:44:05;100151.84;;;8.86;100.00
69306;BME280;56427;51.580;4.656;2023-04-01T14:49:46;100159.75;;;8.94;100.00
69306;BME280;56427;51.580;4.656;2023-04-01T14:54:46;100158.66;;;8.87;100.00
69306;BME280;56427;51.580;4.656;2023-04-01T14:57:25;100161.53;;;8.94;100.00
69306;BME280;56427;51.580;4.656;2023-04-01T15:00:12;100172.97;;;8.91;100.00
69306;BME280;56427;51.580;4.656;2023-04-01T15:02:57;100163.44;;;8.92;100.00
69306;BME280;56427;51.580;4.656;2023-04-01T15:05:42;100170.50;;;8.90;100.00
69306;BME280;56427;51.580;4.656;2023-04-01T15:21:10;100196.53;;;8.98;100.00
69306;BME280;56427;51.580;4.656;2023-04-01T15:23:49;100197.50;;;8.97;100.00
69306;BME280;56427;51.580;4.656;2023-04-01T15:31:31;100199.16;;;9.08;100.00
69306;BME280;56427;51.580;4.656;2023-04-01T15:37:04;100207.38;;;9.13;100.00
69306;BME280;56427;51.580;4.656;2023-04-01T15:52:24;100234.19;;;9.12;100.00
69306;BME280;56427;51.580;4.656;2023-04-01T15:55:24;100232.78;;;8.88;100.00
69306;BME280;56427;51.580;4.656;2023-04-01T15:58:28;100246.03;;;9.05;100.00
69306;BME280;56427;51.580;4.656;2023-04-01T16:09:46;100259.91;;;9.03;100.00
69306;BME280;56427;51.580;4.656;2023-04-01T16:15:25;100260.81;;;8.93;100.00
69306;BME280;56427;51.580;4.656;2023-04-01T16:26:18;100279.19;;;8.90;100.00
69306;BME280;56427;51.580;4.656;2023-04-01T16:34:30;100287.28;;;8.96;100.00
69306;BME280;56427;51.580;4.656;2023-04-01T16:37:29;100288.59;;;8.91;100.00
69306;BME280;56427;51.580;4.656;2023-04-01T16:42:51;100296.66;;;8.97;100.00
69306;BME280;56427;51.580;4.656;2023-04-01T16:46:13;100301.69;;;8.89;100.00
69306;BME280;56427;51.580;4.656;2023-04-01T16:49:00;100300.34;;;8.95;100.00
69306;BME280;56427;51.580;4.656;2023-04-01T16:51:37;100302.81;;;8.96;100.00
69306;BME280;56427;51.580;4.656;2023-04-01T16:54:16;100313.84;;;8.98;100.00
69306;BME280;56427;51.580;4.656;2023-04-01T16:56:49;100316.56;;;8.97;100.00
69306;BME280;56427;51.580;4.656;2023-04-01T16:59:22;100319.59;;;9.02;100.00
69306;BME280;56427;51.580;4.656;2023-04-01T17:01:56;100328.03;;;9.04;100.00
69306;BME280;56427;51.580;4.656;2023-04-01T17:04:48;100332.94;;;9.07;100.00
69306;BME280;56427;51.580;4.656;2023-04-01T17:09:58;100340.06;;;9.15;100.00
69306;BME280;56427;51.580;4.656;2023-04-01T17:23:50;100357.72;;;9.00;100.00
69306;BME280;56427;51.580;4.656;2023-04-01T17:34:30;100383.25;;;9.14;100.00
69306;BME280;56427;51.580;4.656;2023-04-01T17:47:43;100405.53;;;9.27;100.00
69306;BME280;56427;51.580;4.656;2023-04-01T17:58:29;100435.53;;;9.29;100.00
69306;BME280;56427;51.580;4.656;2023-04-01T18:01:18;100435.00;;;9.05;100.00
69306;BME280;56427;51.580;4.656;2023-04-01T18:06:49;100446.97;;;9.06;100.00
69306;BME280;56427;51.580;4.656;2023-04-01T18:12:40;100453.13;;;9.05;100.00
69306;BME280;56427;51.580;4.656;2023-04-01T18:23:14;100479.44;;;9.10;100.00
69306;BME280;56427;51.580;4.656;2023-04-01T18:25:53;100492.13;;;8.92;100.00
69306;BME280;56427;51.580;4.656;2023-04-01T18:28:43;100490.59;;;9.10;100.00
69306;BME280;56427;51.580;4.656;2023-04-01T18:31:18;100507.19;;;9.08;100.00
69306;BME280;56427;51.580;4.656;2023-04-01T18:34:02;100505.69;;;9.26;100.00
69306;BME280;56427;51.580;4.656;2023-04-01T18:36:51;100522.28;;;9.02;100.00
69306;BME280;56427;51.580;4.656;2023-04-01T18:39:33;100534.19;;;9.05;100.00
69306;BME280;56427;51.580;4.656;2023-04-01T18:47:44;100535.94;;;9.05;100.00
69306;BME280;56427;51.580;4.656;2023-04-01T18:50:32;100545.03;;;8.99;100.00
69306;BME280;56427;51.580;4.656;2023-04-01T18:53:25;100553.28;;;8.93;100.00
69306;BME280;56427;51.580;4.656;2023-04-01T18:56:02;100565.59;;;9.00;100.00
69306;BME280;56427;51.580;4.656;2023-04-01T18:58:46;100560.50;;;8.78;100.00
69306;BME280;56427;51.580;4.656;2023-04-01T19:01:23;100567.09;;;8.82;100.00
69306;BME280;56427;51.580;4.656;2023-04-01T19:04:02;100573.56;;;8.76;100.00
69306;BME280;56427;51.580;4.656;2023-04-01T19:06:34;100579.59;;;8.65;100.00
69306;BME280;56427;51.580;4.656;2023-04-01T19:09:16;100589.47;;;8.72;100.00
69306;BME280;56427;51.580;4.656;2023-04-01T19:12:13;100596.28;;;8.61;100.00
69306;BME280;56427;51.580;4.656;2023-04-01T19:15:05;100598.75;;;8.63;100.00
69306;BME280;56427;51.580;4.656;2023-04-01T19:17:58;100605.72;;;8.51;100.00
69306;BME280;56427;51.580;4.656;2023-04-01T19:20:34;100614.91;;;8.55;100.00
69306;BME280;56427;51.580;4.656;2023-04-01T19:25:54;100626.88;;;8.56;100.00
69306;BME280;56427;51.580;4.656;2023-04-01T19:28:55;100628.31;;;8.49;100.00
69306;BME280;56427;51.580;4.656;2023-04-01T19:31:58;100640.63;;;8.57;100.00
69306;BME280;56427;51.580;4.656;2023-04-01T19:34:26;100639.56;;;8.59;100.00
69306;BME280;56427;51.580;4.656;2023-04-01T19:39:27;100648.66;;;8.54;100.00
69306;BME280;56427;51.580;4.656;2023-04-01T19:52:31;100668.84;;;8.37;100.00
69306;BME280;56427;51.580;4.656;2023-04-01T19:57:30;100683.09;;;8.43;100.00
69306;BME280;56427;51.580;4.656;2023-04-01T20:00:14;100685.53;;;8.33;100.00
69306;BME280;56427;51.580;4.656;2023-04-01T20:03:03;100692.94;;;8.38;100.00
69306;BME280;56427;51.580;4.656;2023-04-01T20:09:05;100694.97;;;8.45;100.00
69306;BME280;56427;51.580;4.656;2023-04-01T20:11:37;100713.31;;;8.54;100.00
69306;BME280;56427;51.580;4.656;2023-04-01T20:17:07;100724.66;;;8.40;100.00
69306;BME280;56427;51.580;4.656;2023-04-01T20:22:08;100734.19;;;8.39;100.00
69306;BME280;56427;51.580;4.656;2023-04-01T20:24:44;100741.47;;;8.34;100.00
69306;BME280;56427;51.580;4.656;2023-04-01T20:41:04;100775.19;;;8.21;100.00
69306;BME280;56427;51.580;4.656;2023-04-01T20:43:46;100783.31;;;8.28;100.00
69306;BME280;56427;51.580;4.656;2023-04-01T20:46:46;100786.34;;;8.22;100.00
69306;BME280;56427;51.580;4.656;2023-04-01T20:52:06;100791.56;;;8.09;100.00
69306;BME280;56427;51.580;4.656;2023-04-01T20:57:34;100810.03;;;8.04;100.00
69306;BME280;56427;51.580;4.656;2023-04-01T21:00:19;100810.56;;;7.97;100.00
69306;BME280;56427;51.580;4.656;2023-04-01T21:03:03;100817.03;;;8.02;100.00
69306;BME280;56427;51.580;4.656;2023-04-01T21:14:38;100841.88;;;8.05;100.00
69306;BME280;56427;51.580;4.656;2023-04-01T21:17:27;100839.50;;;8.02;100.00
69306;BME280;56427;51.580;4.656;2023-04-01T21:33:14;100881.66;;;7.78;100.00
69306;BME280;56427;51.580;4.656;2023-04-01T21:44:07;100896.09;;;7.57;100.00
69306;BME280;56427;51.580;4.656;2023-04-01T21:49:42;100913.44;;;7.54;100.00
69306;BME280;56427;51.580;4.656;2023-04-01T21:52:35;100920.75;;;7.61;100.00
69306;BME280;56427;51.580;4.656;2023-04-01T22:04:44;100935.34;;;7.36;100.00
69306;BME280;56427;51.580;4.656;2023-04-01T22:07:37;100939.81;;;7.34;100.00
69306;BME280;56427;51.580;4.656;2023-04-01T22:10:39;100954.34;;;7.35;100.00
69306;BME280;56427;51.580;4.656;2023-04-01T22:13:14;100959.81;;;7.43;100.00
69306;BME280;56427;51.580;4.656;2023-04-01T22:16:05;100954.03;;;7.40;100.00
69306;BME280;56427;51.580;4.656;2023-04-01T22:21:12;100976.13;;;7.18;100.00
69306;BME280;56427;51.580;4.656;2023-04-01T22:23:56;100971.19;;;7.28;100.00
69306;BME280;56427;51.580;4.656;2023-04-01T22:26:50;100976.75;;;7.22;100.00
69306;BME280;56427;51.580;4.656;2023-04-01T22:32:06;100985.72;;;7.03;100.00
69306;BME280;56427;51.580;4.656;2023-04-01T22:43:09;101007.38;;;7.00;100.00
69306;BME280;56427;51.580;4.656;2023-04-01T22:50:41;101020.00;;;7.05;100.00
69306;BME280;56427;51.580;4.656;2023-04-01T22:56:07;101034.28;;;6.84;100.00
69306;BME280;56427;51.580;4.656;2023-04-01T22:58:43;101030.16;;;6.81;100.00
69306;BME280;56427;51.580;4.656;2023-04-01T23:01:15;101042.22;;;6.80;100.00
69306;BME280;56427;51.580;4.656;2023-04-01T23:03:45;101045.56;;;6.82;100.00
69306;BME280;56427;51.580;4.656;2023-04-01T23:06:42;101048.00;;;6.84;100.00
69306;BME280;56427;51.580;4.656;2023-04-01T23:09:25;101057.88;;;6.77;100.00
69306;BME280;56427;51.580;4.656;2023-04-01T23:11:58;101055.22;;;6.79;100.00
69306;BME280;56427;51.580;4.656;2023-04-01T23:14:33;101065.00;;;6.74;100.00
69306;BME280;56427;51.580;4.656;2023-04-01T23:19:52;101073.53;;;6.61;100.00
69306;BME280;56427;51.580;4.656;2023-04-01T23:22:29;101071.22;;;6.57;100.00